sensor_id;sensor_type;location;lat;lon;timestamp;temperature;humidity
1277;DHT22;631;51.024;13.826;2023-06-19T00:01:15;17.00;99.90
1277;DHT22;631;51.024;13.826;2023-06-19T00:03:41;16.90;99.90
1277;DHT22;631;51.024;13.826;2023-06-19T00:06:06;16.90;99.90
1277;DHT22;631;51.024;13.826;2023-06-19T00:08:32;16.90;99.90
1277;DHT22;631;51.024;13.826;2023-06-19T00:10:58;16.90;99.90
1277;DHT22;631;51.024;13.826;2023-06-19T00:13:23;16.90;99.90
1277;DHT22;631;51.024;13.826;2023-06-19T00:15:49;16.90;99.90
1277;DHT22;631;51.024;13.826;2023-06-19T00:18:15;16.90;99.90
1277;DHT22;631;51.024;13.826;2023-06-19T00:20:42;16.80;99.90
1277;DHT22;631;51.024;13.826;2023-06-19T00:23:11;16.70;99.90
1277;DHT22;631;51.024;13.826;2023-06-19T00:25:40;16.70;99.90
1277;DHT22;631;51.024;13.826;2023-06-19T00:28:05;16.70;99.90
1277;DHT22;631;51.024;13.826;2023-06-19T00:30:39;16.70;99.90
1277;DHT22;631;51.024;13.826;2023-06-19T00:33:05;16.60;99.90
1277;DHT22;631;51.024;13.826;2023-06-19T00:35:31;16.60;99.90
1277;DHT22;631;51.024;13.826;2023-06-19T00:37:56;16.60;99.90
1277;DHT22;631;51.024;13.826;2023-06-19T00:40:28;16.60;99.90
1277;DHT22;631;51.024;13.826;2023-06-19T00:42:54;16.50;99.90
1277;DHT22;631;51.024;13.826;2023-06-19T00:45:20;16.60;99.90
1277;DHT22;631;51.024;13.826;2023-06-19T00:47:46;16.60;99.90
1277;DHT22;631;51.024;13.826;2023-06-19T00:50:12;16.60;99.90
1277;DHT22;631;51.024;13.826;2023-06-19T00:52:38;16.60;99.90
1277;DHT22;631;51.024;13.826;2023-06-19T00:55:04;16.70;99.90
1277;DHT22;631;51.024;13.826;2023-06-19T00:57:31;16.70;99.90
1277;DHT22;631;51.024;13.826;2023-06-19T00:59:57;16.70;99.90
1277;DHT22;631;51.024;13.826;2023-06-19T01:02:27;16.70;99.90
1277;DHT22;631;51.024;13.826;2023-06-19T01:04:53;16.70;99.90
1277;DHT22;631;51.024;13.826;2023-06-19T01:07:23;16.70;99.90
1277;DHT22;631;51.024;13.826;2023-06-19T01:09:58;16.70;99.90
1277;DHT22;631;51.024;13.826;2023-06-19T01:12:40;16.70;99.90
1277;DHT22;631;51.024;13.826;2023-06-19T01:15:08;16.70;99.90
1277;DHT22;631;51.024;13.826;2023-06-19T01:17:35;16.60;99.90
1277;DHT22;631;51.024;13.826;2023-06-19T01:20:01;16.60;99.90
1277;DHT22;631;51.024;13.826;2023-06-19T01:22:36;16.50;99.90
1277;DHT22;631;51.024;13.826;2023-06-19T01:25:02;16.50;99.90
1277;DHT22;631;51.024;13.826;2023-06-19T01:27:29;16.40;99.90
1277;DHT22;631;51.024;13.826;2023-06-19T01:29:56;16.40;99.90
1277;DHT22;631;51.024;13.826;2023-06-19T01:32:38;16.40;99.90
1277;DHT22;631;51.024;13.826;2023-06-19T01:35:08;16.30;99.90
1277;DHT22;631;51.024;13.826;2023-06-19T01:37:38;16.30;99.90
1277;DHT22;631;51.024;13.826;2023-06-19T01:40:06;16.20;99.90
1277;DHT22;631;51.024;13.826;2023-06-19T01:42:37;16.20;99.90
1277;DHT22;631;51.024;13.826;2023-06-19T01:45:03;16.20;99.90
1277;DHT22;631;51.024;13.826;2023-06-19T01:47:29;16.20;99.90
1277;DHT22;631;51.024;13.826;2023-06-19T01:49:55;16.10;99.90
1277;DHT22;631;51.024;13.826;2023-06-19T01:52:21;16.10;99.90
1277;DHT22;631;51.024;13.826;2023-06-19T01:54:46;16.00;99.90
1277;DHT22;631;51.024;13.826;2023-06-19T01:57:12;16.10;99.90
1277;DHT22;631;51.024;13.826;2023-06-19T01:59:38;16.00;99.90
1277;DHT22;631;51.024;13.826;2023-06-19T02:02:04;16.00;99.90
1277;DHT22;631;51.024;13.826;2023-06-19T02:04:32;16.00;99.90
1277;DHT22;631;51.024;13.826;2023-06-19T02:06:58;16.00;99.90
1277;DHT22;631;51.024;13.826;2023-06-19T02:09:23;16.00;99.90
1277;DHT22;631;51.024;13.826;2023-06-19T02:11:49;15.90;99.90
1277;DHT22;631;51.024;13.826;2023-06-19T02:14:15;15.90;99.90
1277;DHT22;631;51.024;13.826;2023-06-19T02:16:41;15.90;99.90
1277;DHT22;631;51.024;13.826;2023-06-19T02:19:11;15.90;99.90
1277;DHT22;631;51.024;13.826;2023-06-19T02:21:38;15.90;99.90
1277;DHT22;631;51.024;13.826;2023-06-19T02:24:04;15.90;99.90
1277;DHT22;631;51.024;13.826;2023-06-19T02:26:30;15.90;99.90
1277;DHT22;631;51.024;13.826;2023-06-19T02:28:56;15.80;99.90
1277;DHT22;631;51.024;13.826;2023-06-19T02:31:24;15.80;99.90
1277;DHT22;631;51.024;13.826;2023-06-19T02:33:50;15.80;99.90
1277;DHT22;631;51.024;13.826;2023-06-19T02:36:16;15.70;99.90
1277;DHT22;631;51.024;13.826;2023-06-19T02:38:48;15.70;99.90
1277;DHT22;631;51.024;13.826;2023-06-19T02:41:14;15.60;99.90
1277;DHT22;631;51.024;13.826;2023-06-19T02:43:45;15.60;99.90
1277;DHT22;631;51.024;13.826;2023-06-19T02:46:15;15.60;99.90
1277;DHT22;631;51.024;13.826;2023-06-19T02:48:40;15.60;99.90
1277;DHT22;631;51.024;13.826;2023-06-19T02:51:06;15.60;99.90
1277;DHT22;631;51.024;13.826;2023-06-19T02:53:32;15.60;99.90
1277;DHT22;631;51.024;13.826;2023-06-19T02:55:57;15.60;99.90
1277;DHT22;631;51.024;13.826;2023-06-19T02:58:23;15.60;99.90
1277;DHT22;631;51.024;13.826;2023-06-19T03:00:49;15.60;99.90
1277;DHT22;631;51.024;13.826;2023-06-19T03:03:14;15.60;99.90
1277;DHT22;631;51.024;13.826;2023-06-19T03:05:40;15.60;99.90
1277;DHT22;631;51.024;13.826;2023-06-19T03:08:06;15.70;99.90
1277;DHT22;631;51.024;13.826;2023-06-19T03:10:32;15.70;99.90
1277;DHT22;631;51.024;13.826;2023-06-19T03:12:58;15.70;99.90
1277;DHT22;631;51.024;13.826;2023-06-19T03:15:24;15.70;99.90
1277;DHT22;631;51.024;13.826;2023-06-19T03:17:50;15.70;99.90
1277;DHT22;631;51.024;13.826;2023-06-19T03:20:15;15.80;99.90
1277;DHT22;631;51.024;13.826;2023-06-19T03:22:41;15.80;99.90
1277;DHT22;631;51.024;13.826;2023-06-19T03:25:07;15.90;99.90
1277;DHT22;631;51.024;13.826;2023-06-19T03:27:34;15.90;99.90
1277;DHT22;631;51.024;13.826;2023-06-19T03:29:59;16.00;99.90
1277;DHT22;631;51.024;13.826;2023-06-19T03:32:25;16.00;99.90
1277;DHT22;631;51.024;13.826;2023-06-19T03:34:50;16.00;99.90
1277;DHT22;631;51.024;13.826;2023-06-19T03:37:16;16.10;99.90
1277;DHT22;631;51.024;13.826;2023-06-19T03:39:42;16.10;99.90
1277;DHT22;631;51.024;13.826;2023-06-19T03:42:08;16.20;99.90
1277;DHT22;631;51.024;13.826;2023-06-19T03:44:34;16.20;99.90
1277;DHT22;631;51.024;13.826;2023-06-19T03:46:59;16.20;99.90
1277;DHT22;631;51.024;13.826;2023-06-19T03:49:25;16.20;99.90
1277;DHT22;631;51.024;13.826;2023-06-19T03:51:51;16.20;99.90
1277;DHT22;631;51.024;13.826;2023-06-19T03:54:17;16.30;99.90
1277;DHT22;631;51.024;13.826;2023-06-19T03:56:43;16.30;99.90
1277;DHT22;631;51.024;13.826;2023-06-19T03:59:08;16.30;99.90
1277;DHT22;631;51.024;13.826;2023-06-19T04:01:34;16.40;99.90
1277;DHT22;631;51.024;13.826;2023-06-19T04:03:59;16.50;99.90
1277;DHT22;631;51.024;13.826;2023-06-19T04:06:25;16.40;99.90
1277;DHT22;631;51.024;13.826;2023-06-19T04:08:52;16.50;99.90
1277;DHT22;631;51.024;13.826;2023-06-19T04:11:17;16.40;99.90
1277;DHT22;631;51.024;13.826;2023-06-19T04:13:43;16.50;99.90
1277;DHT22;631;51.024;13.826;2023-06-19T04:16:09;16.60;99.90
1277;DHT22;631;51.024;13.826;2023-06-19T04:18:34;16.60;99.90
1277;DHT22;631;51.024;13.826;2023-06-19T04:21:00;16.70;99.90
1277;DHT22;631;51.024;13.826;2023-06-19T04:23:26;16.80;99.90
1277;DHT22;631;51.024;13.826;2023-06-19T04:25:52;16.90;99.90
1277;DHT22;631;51.024;13.826;2023-06-19T04:28:18;17.00;99.90
1277;DHT22;631;51.024;13.826;2023-06-19T04:30:43;17.10;99.90
1277;DHT22;631;51.024;13.826;2023-06-19T04:33:09;17.10;99.90
1277;DHT22;631;51.024;13.826;2023-06-19T04:35:34;17.20;99.90
1277;DHT22;631;51.024;13.826;2023-06-19T04:38:06;17.40;99.90
1277;DHT22;631;51.024;13.826;2023-06-19T04:40:31;17.50;99.90
1277;DHT22;631;51.024;13.826;2023-06-19T04:42:58;17.70;99.90
1277;DHT22;631;51.024;13.826;2023-06-19T04:45:23;17.80;99.90
1277;DHT22;631;51.024;13.826;2023-06-19T04:47:49;17.90;99.90
1277;DHT22;631;51.024;13.826;2023-06-19T04:50:15;18.10;99.90
1277;DHT22;631;51.024;13.826;2023-06-19T04:52:41;18.20;99.90
1277;DHT22;631;51.024;13.826;2023-06-19T04:55:07;18.30;99.90
1277;DHT22;631;51.024;13.826;2023-06-19T04:57:37;18.40;99.90
1277;DHT22;631;51.024;13.826;2023-06-19T05:00:06;18.60;99.90
1277;DHT22;631;51.024;13.826;2023-06-19T05:02:33;18.60;99.90
1277;DHT22;631;51.024;13.826;2023-06-19T05:04:59;18.80;99.90
1277;DHT22;631;51.024;13.826;2023-06-19T05:07:31;18.80;99.90
1277;DHT22;631;51.024;13.826;2023-06-19T05:09:57;19.00;99.90
1277;DHT22;631;51.024;13.826;2023-06-19T05:12:24;19.10;99.90
1277;DHT22;631;51.024;13.826;2023-06-19T05:14:50;19.20;99.90
1277;DHT22;631;51.024;13.826;2023-06-19T05:17:15;19.30;99.90
1277;DHT22;631;51.024;13.826;2023-06-19T05:19:41;19.40;99.90
1277;DHT22;631;51.024;13.826;2023-06-19T05:22:06;19.40;99.90
1277;DHT22;631;51.024;13.826;2023-06-19T05:24:32;19.50;99.90
1277;DHT22;631;51.024;13.826;2023-06-19T05:26:58;19.50;99.90
1277;DHT22;631;51.024;13.826;2023-06-19T05:29:24;19.60;99.90
1277;DHT22;631;51.024;13.826;2023-06-19T05:31:50;19.70;99.90
1277;DHT22;631;51.024;13.826;2023-06-19T05:34:16;19.80;99.90
1277;DHT22;631;51.024;13.826;2023-06-19T05:36:42;19.90;99.90
1277;DHT22;631;51.024;13.826;2023-06-19T05:39:10;20.00;99.90
1277;DHT22;631;51.024;13.826;2023-06-19T05:41:36;20.10;99.90
1277;DHT22;631;51.024;13.826;2023-06-19T05:44:01;20.10;99.90
1277;DHT22;631;51.024;13.826;2023-06-19T05:46:27;20.30;99.90
1277;DHT22;631;51.024;13.826;2023-06-19T05:48:52;20.40;99.90
1277;DHT22;631;51.024;13.826;2023-06-19T05:51:20;20.50;99.90
1277;DHT22;631;51.024;13.826;2023-06-19T05:53:45;20.60;99.90
1277;DHT22;631;51.024;13.826;2023-06-19T05:56:12;20.70;99.90
1277;DHT22;631;51.024;13.826;2023-06-19T05:58:37;20.80;99.90
1277;DHT22;631;51.024;13.826;2023-06-19T06:01:04;20.80;99.90
1277;DHT22;631;51.024;13.826;2023-06-19T06:03:30;20.90;99.50
1277;DHT22;631;51.024;13.826;2023-06-19T06:05:56;21.00;99.10
1277;DHT22;631;51.024;13.826;2023-06-19T06:08:31;21.10;98.50
1277;DHT22;631;51.024;13.826;2023-06-19T06:10:57;21.20;97.90
1277;DHT22;631;51.024;13.826;2023-06-19T06:13:23;21.30;97.50
1277;DHT22;631;51.024;13.826;2023-06-19T06:15:49;21.40;97.10
1277;DHT22;631;51.024;13.826;2023-06-19T06:18:14;21.40;96.60
1277;DHT22;631;51.024;13.826;2023-06-19T06:20:40;21.50;96.10
1277;DHT22;631;51.024;13.826;2023-06-19T06:23:06;21.60;95.50
1277;DHT22;631;51.024;13.826;2023-06-19T06:25:31;21.70;95.10
1277;DHT22;631;51.024;13.826;2023-06-19T06:27:57;21.80;94.80
1277;DHT22;631;51.024;13.826;2023-06-19T06:30:22;21.80;94.50
1277;DHT22;631;51.024;13.826;2023-06-19T06:32:49;21.90;94.30
1277;DHT22;631;51.024;13.826;2023-06-19T06:35:15;22.00;94.00
1277;DHT22;631;51.024;13.826;2023-06-19T06:37:41;22.10;93.60
1277;DHT22;631;51.024;13.826;2023-06-19T06:40:07;22.20;92.80
1277;DHT22;631;51.024;13.826;2023-06-19T06:42:39;22.20;92.60
1277;DHT22;631;51.024;13.826;2023-06-19T06:45:06;22.20;92.60
1277;DHT22;631;51.024;13.826;2023-06-19T06:47:32;22.30;92.70
1277;DHT22;631;51.024;13.826;2023-06-19T06:49:58;22.40;92.10
1277;DHT22;631;51.024;13.826;2023-06-19T06:52:23;22.50;92.00
1277;DHT22;631;51.024;13.826;2023-06-19T06:54:49;22.50;91.60
1277;DHT22;631;51.024;13.826;2023-06-19T06:57:16;22.60;91.40
1277;DHT22;631;51.024;13.826;2023-06-19T06:59:41;22.50;91.20
1277;DHT22;631;51.024;13.826;2023-06-19T07:02:07;22.40;91.20
1277;DHT22;631;51.024;13.826;2023-06-19T07:04:32;22.50;91.30
1277;DHT22;631;51.024;13.826;2023-06-19T07:06:58;22.50;91.40
1277;DHT22;631;51.024;13.826;2023-06-19T07:09:24;22.60;91.50
1277;DHT22;631;51.024;13.826;2023-06-19T07:11:50;22.70;91.20
1277;DHT22;631;51.024;13.826;2023-06-19T07:14:16;22.70;91.00
1277;DHT22;631;51.024;13.826;2023-06-19T07:16:45;22.70;90.70
1277;DHT22;631;51.024;13.826;2023-06-19T07:19:11;22.80;90.70
1277;DHT22;631;51.024;13.826;2023-06-19T07:21:37;22.90;90.50
1277;DHT22;631;51.024;13.826;2023-06-19T07:24:04;23.10;90.60
1277;DHT22;631;51.024;13.826;2023-06-19T07:26:30;23.10;90.00
1277;DHT22;631;51.024;13.826;2023-06-19T07:28:56;23.20;90.20
1277;DHT22;631;51.024;13.826;2023-06-19T07:31:22;23.10;88.90
1277;DHT22;631;51.024;13.826;2023-06-19T07:33:48;23.20;89.40
1277;DHT22;631;51.024;13.826;2023-06-19T07:36:14;23.20;89.50
1277;DHT22;631;51.024;13.826;2023-06-19T07:38:42;23.40;89.40
1277;DHT22;631;51.024;13.826;2023-06-19T07:41:08;23.50;89.10
1277;DHT22;631;51.024;13.826;2023-06-19T07:43:35;23.40;88.40
1277;DHT22;631;51.024;13.826;2023-06-19T07:46:01;23.50;88.40
1277;DHT22;631;51.024;13.826;2023-06-19T07:48:27;23.60;87.60
1277;DHT22;631;51.024;13.826;2023-06-19T07:50:53;23.80;87.30
1277;DHT22;631;51.024;13.826;2023-06-19T07:53:19;23.90;86.90
1277;DHT22;631;51.024;13.826;2023-06-19T07:55:45;24.10;86.60
1277;DHT22;631;51.024;13.826;2023-06-19T07:58:10;24.20;85.40
1277;DHT22;631;51.024;13.826;2023-06-19T08:00:36;24.30;84.10
1277;DHT22;631;51.024;13.826;2023-06-19T08:03:02;24.30;83.50
1277;DHT22;631;51.024;13.826;2023-06-19T08:05:27;24.30;83.90
1277;DHT22;631;51.024;13.826;2023-06-19T08:07:53;24.40;83.10
1277;DHT22;631;51.024;13.826;2023-06-19T08:10:18;24.30;82.50
1277;DHT22;631;51.024;13.826;2023-06-19T08:12:44;24.30;83.10
1277;DHT22;631;51.024;13.826;2023-06-19T08:15:11;24.40;83.30
1277;DHT22;631;51.024;13.826;2023-06-19T08:17:38;24.50;83.00
1277;DHT22;631;51.024;13.826;2023-06-19T08:20:05;24.60;82.30
1277;DHT22;631;51.024;13.826;2023-06-19T08:22:31;24.70;81.60
1277;DHT22;631;51.024;13.826;2023-06-19T08:24:56;24.80;81.20
1277;DHT22;631;51.024;13.826;2023-06-19T08:27:22;24.80;80.70
1277;DHT22;631;51.024;13.826;2023-06-19T08:29:48;25.00;80.50
1277;DHT22;631;51.024;13.826;2023-06-19T08:32:13;25.10;80.00
1277;DHT22;631;51.024;13.826;2023-06-19T08:34:39;25.10;79.30
1277;DHT22;631;51.024;13.826;2023-06-19T08:37:05;24.90;79.20
1277;DHT22;631;51.024;13.826;2023-06-19T08:39:31;24.90;79.80
1277;DHT22;631;51.024;13.826;2023-06-19T08:41:57;24.90;80.50
1277;DHT22;631;51.024;13.826;2023-06-19T08:44:23;24.90;80.10
1277;DHT22;631;51.024;13.826;2023-06-19T08:46:48;24.90;80.90
1277;DHT22;631;51.024;13.826;2023-06-19T08:49:14;24.80;79.60
1277;DHT22;631;51.024;13.826;2023-06-19T08:51:43;24.60;79.60
1277;DHT22;631;51.024;13.826;2023-06-19T08:54:08;24.40;80.20
1277;DHT22;631;51.024;13.826;2023-06-19T08:56:35;24.20;81.70
1277;DHT22;631;51.024;13.826;2023-06-19T08:59:16;24.10;83.00
1277;DHT22;631;51.024;13.826;2023-06-19T09:01:53;24.00;85.10
1277;DHT22;631;51.024;13.826;2023-06-19T09:04:20;23.90;86.70
1277;DHT22;631;51.024;13.826;2023-06-19T09:06:54;24.00;85.70
1277;DHT22;631;51.024;13.826;2023-06-19T09:09:21;24.10;85.20
1277;DHT22;631;51.024;13.826;2023-06-19T09:14:35;24.20;84.90
1277;DHT22;631;51.024;13.826;2023-06-19T09:17:06;24.40;85.10
1277;DHT22;631;51.024;13.826;2023-06-19T09:19:33;24.40;84.50
1277;DHT22;631;51.024;13.826;2023-06-19T09:22:05;24.60;84.30
1277;DHT22;631;51.024;13.826;2023-06-19T09:24:41;24.60;83.70
1277;DHT22;631;51.024;13.826;2023-06-19T09:27:10;24.60;84.60
1277;DHT22;631;51.024;13.826;2023-06-19T09:29:38;24.50;85.20
1277;DHT22;631;51.024;13.826;2023-06-19T09:32:23;24.60;86.20
1277;DHT22;631;51.024;13.826;2023-06-19T09:34:50;24.50;84.30
1277;DHT22;631;51.024;13.826;2023-06-19T09:37:22;24.30;84.80
1277;DHT22;631;51.024;13.826;2023-06-19T09:39:55;24.20;85.80
1277;DHT22;631;51.024;13.826;2023-06-19T09:42:32;24.10;86.50
1277;DHT22;631;51.024;13.826;2023-06-19T09:45:03;24.00;86.60
1277;DHT22;631;51.024;13.826;2023-06-19T09:50:01;24.00;87.10
1277;DHT22;631;51.024;13.826;2023-06-19T09:52:28;24.00;87.50
1277;DHT22;631;51.024;13.826;2023-06-19T09:54:55;24.00;88.20
1277;DHT22;631;51.024;13.826;2023-06-19T09:57:21;24.00;88.20
1277;DHT22;631;51.024;13.826;2023-06-19T09:59:56;23.80;88.50
1277;DHT22;631;51.024;13.826;2023-06-19T10:02:25;23.70;89.70
1277;DHT22;631;51.024;13.826;2023-06-19T10:04:54;23.70;90.30
1277;DHT22;631;51.024;13.826;2023-06-19T10:07:32;23.80;90.20
1277;DHT22;631;51.024;13.826;2023-06-19T10:09:59;23.90;90.70
1277;DHT22;631;51.024;13.826;2023-06-19T10:12:45;24.00;89.20
1277;DHT22;631;51.024;13.826;2023-06-19T10:15:18;23.90;89.70
1277;DHT22;631;51.024;13.826;2023-06-19T10:18:05;23.90;88.90
1277;DHT22;631;51.024;13.826;2023-06-19T10:20:36;23.80;89.40
1277;DHT22;631;51.024;13.826;2023-06-19T10:23:10;23.70;90.20
1277;DHT22;631;51.024;13.826;2023-06-19T10:25:38;23.80;90.40
1277;DHT22;631;51.024;13.826;2023-06-19T10:28:06;23.90;90.60
1277;DHT22;631;51.024;13.826;2023-06-19T10:30:41;24.10;90.00
1277;DHT22;631;51.024;13.826;2023-06-19T10:33:06;24.20;89.20
1277;DHT22;631;51.024;13.826;2023-06-19T10:35:40;24.40;88.70
1277;DHT22;631;51.024;13.826;2023-06-19T10:38:09;24.70;88.70
1277;DHT22;631;51.024;13.826;2023-06-19T10:40:39;24.90;87.60
1277;DHT22;631;51.024;13.826;2023-06-19T10:43:04;25.10;87.00
1277;DHT22;631;51.024;13.826;2023-06-19T10:45:30;25.40;85.20
1277;DHT22;631;51.024;13.826;2023-06-19T10:47:57;25.50;83.80
1277;DHT22;631;51.024;13.826;2023-06-19T10:50:24;25.60;83.30
1277;DHT22;631;51.024;13.826;2023-06-19T10:52:53;25.90;81.60
1277;DHT22;631;51.024;13.826;2023-06-19T10:55:21;26.10;81.00
1277;DHT22;631;51.024;13.826;2023-06-19T10:57:48;26.60;80.60
1277;DHT22;631;51.024;13.826;2023-06-19T11:00:29;27.00;76.90
1277;DHT22;631;51.024;13.826;2023-06-19T11:02:56;27.00;75.90
1277;DHT22;631;51.024;13.826;2023-06-19T11:05:24;27.10;74.00
1277;DHT22;631;51.024;13.826;2023-06-19T11:07:58;27.20;74.60
1277;DHT22;631;51.024;13.826;2023-06-19T11:10:26;28.00;73.60
1277;DHT22;631;51.024;13.826;2023-06-19T11:12:56;28.20;68.50
1277;DHT22;631;51.024;13.826;2023-06-19T11:15:32;28.50;68.80
1277;DHT22;631;51.024;13.826;2023-06-19T11:17:59;29.50;68.50
1277;DHT22;631;51.024;13.826;2023-06-19T11:20:25;30.40;63.10
1277;DHT22;631;51.024;13.826;2023-06-19T11:22:55;31.20;58.00
1277;DHT22;631;51.024;13.826;2023-06-19T11:25:22;32.00;54.10
1277;DHT22;631;51.024;13.826;2023-06-19T11:27:47;32.70;51.00
1277;DHT22;631;51.024;13.826;2023-06-19T11:30:18;33.20;47.60
1277;DHT22;631;51.024;13.826;2023-06-19T11:32:46;33.90;44.90
1277;DHT22;631;51.024;13.826;2023-06-19T11:35:16;33.90;44.00
1277;DHT22;631;51.024;13.826;2023-06-19T11:37:43;33.90;42.90
1277;DHT22;631;51.024;13.826;2023-06-19T11:40:12;33.80;40.90
1277;DHT22;631;51.024;13.826;2023-06-19T11:42:51;33.80;38.80
1277;DHT22;631;51.024;13.826;2023-06-19T11:45:17;34.10;38.20
1277;DHT22;631;51.024;13.826;2023-06-19T11:47:44;34.00;38.40
1277;DHT22;631;51.024;13.826;2023-06-19T11:50:10;34.50;37.10
1277;DHT22;631;51.024;13.826;2023-06-19T11:52:36;34.90;35.50
1277;DHT22;631;51.024;13.826;2023-06-19T11:55:02;35.00;33.00
1277;DHT22;631;51.024;13.826;2023-06-19T11:57:28;35.10;33.70
1277;DHT22;631;51.024;13.826;2023-06-19T11:59:53;34.60;33.60
1277;DHT22;631;51.024;13.826;2023-06-19T12:02:20;34.60;33.20
1277;DHT22;631;51.024;13.826;2023-06-19T12:04:45;34.80;33.30
1277;DHT22;631;51.024;13.826;2023-06-19T12:07:11;35.40;32.60
1277;DHT22;631;51.024;13.826;2023-06-19T12:09:37;35.20;31.10
1277;DHT22;631;51.024;13.826;2023-06-19T12:12:05;35.10;30.40
1277;DHT22;631;51.024;13.826;2023-06-19T12:14:30;34.90;30.80
1277;DHT22;631;51.024;13.826;2023-06-19T12:23:37;34.80;27.70
1277;DHT22;631;51.024;13.826;2023-06-19T12:26:02;34.90;28.40
1277;DHT22;631;51.024;13.826;2023-06-19T12:28:28;35.10;26.50
1277;DHT22;631;51.024;13.826;2023-06-19T12:30:53;35.10;27.50
1277;DHT22;631;51.024;13.826;2023-06-19T12:33:21;35.60;26.40
1277;DHT22;631;51.024;13.826;2023-06-19T12:35:48;36.00;24.20
1277;DHT22;631;51.024;13.826;2023-06-19T12:38:14;35.70;23.40
1277;DHT22;631;51.024;13.826;2023-06-19T12:40:40;35.50;23.50
1277;DHT22;631;51.024;13.826;2023-06-19T12:43:06;35.40;23.60
1277;DHT22;631;51.024;13.826;2023-06-19T12:45:32;35.40;24.20
1277;DHT22;631;51.024;13.826;2023-06-19T12:47:57;35.10;23.30
1277;DHT22;631;51.024;13.826;2023-06-19T12:50:23;34.80;25.20
1277;DHT22;631;51.024;13.826;2023-06-19T12:52:50;34.60;25.90
1277;DHT22;631;51.024;13.826;2023-06-19T12:55:15;34.30;26.80
1277;DHT22;631;51.024;13.826;2023-06-19T12:57:41;34.10;27.60
1277;DHT22;631;51.024;13.826;2023-06-19T13:00:11;33.90;28.60
1277;DHT22;631;51.024;13.826;2023-06-19T13:02:38;33.70;28.60
1277;DHT22;631;51.024;13.826;2023-06-19T13:05:05;33.70;29.10
1277;DHT22;631;51.024;13.826;2023-06-19T13:07:31;33.80;29.60
1277;DHT22;631;51.024;13.826;2023-06-19T13:09:57;33.80;29.90
1277;DHT22;631;51.024;13.826;2023-06-19T13:12:23;33.90;30.10
1277;DHT22;631;51.024;13.826;2023-06-19T13:14:48;33.70;30.80
1277;DHT22;631;51.024;13.826;2023-06-19T13:17:14;33.80;30.50
1277;DHT22;631;51.024;13.826;2023-06-19T13:19:40;33.90;30.50
1277;DHT22;631;51.024;13.826;2023-06-19T13:22:05;33.80;30.20
1277;DHT22;631;51.024;13.826;2023-06-19T13:24:31;33.70;29.30
1277;DHT22;631;51.024;13.826;2023-06-19T13:26:57;33.50;29.30
1277;DHT22;631;51.024;13.826;2023-06-19T13:29:22;33.40;30.00
1277;DHT22;631;51.024;13.826;2023-06-19T13:31:48;33.20;30.00
1277;DHT22;631;51.024;13.826;2023-06-19T13:34:13;33.00;30.20
1277;DHT22;631;51.024;13.826;2023-06-19T13:36:39;33.10;30.40
1277;DHT22;631;51.024;13.826;2023-06-19T13:39:05;33.00;31.00
1277;DHT22;631;51.024;13.826;2023-06-19T13:41:31;33.00;30.90
1277;DHT22;631;51.024;13.826;2023-06-19T13:43:58;32.90;31.10
1277;DHT22;631;51.024;13.826;2023-06-19T13:46:25;33.10;31.40
1277;DHT22;631;51.024;13.826;2023-06-19T13:48:50;33.50;31.30
1277;DHT22;631;51.024;13.826;2023-06-19T13:51:17;34.00;30.80
1277;DHT22;631;51.024;13.826;2023-06-19T13:53:43;34.50;30.70
1277;DHT22;631;51.024;13.826;2023-06-19T13:56:10;35.20;29.70
1277;DHT22;631;51.024;13.826;2023-06-19T13:58:35;35.70;28.80
1277;DHT22;631;51.024;13.826;2023-06-19T14:01:01;35.90;28.10
1277;DHT22;631;51.024;13.826;2023-06-19T14:03:27;35.60;28.80
1277;DHT22;631;51.024;13.826;2023-06-19T14:05:52;35.80;28.00
1277;DHT22;631;51.024;13.826;2023-06-19T14:08:18;36.00;27.70
1277;DHT22;631;51.024;13.826;2023-06-19T14:10:43;36.20;27.20
1277;DHT22;631;51.024;13.826;2023-06-19T14:13:09;36.70;26.90
1277;DHT22;631;51.024;13.826;2023-06-19T14:15:35;36.80;26.40
1277;DHT22;631;51.024;13.826;2023-06-19T14:18:00;37.00;26.50
1277;DHT22;631;51.024;13.826;2023-06-19T14:20:26;36.70;26.80
1277;DHT22;631;51.024;13.826;2023-06-19T14:22:51;36.30;27.10
1277;DHT22;631;51.024;13.826;2023-06-19T14:25:17;35.70;27.70
1277;DHT22;631;51.024;13.826;2023-06-19T14:27:43;35.20;28.70
1277;DHT22;631;51.024;13.826;2023-06-19T14:30:08;35.10;29.50
1277;DHT22;631;51.024;13.826;2023-06-19T14:32:38;35.20;29.20
1277;DHT22;631;51.024;13.826;2023-06-19T14:35:04;34.90;28.40
1277;DHT22;631;51.024;13.826;2023-06-19T14:37:30;34.50;29.20
1277;DHT22;631;51.024;13.826;2023-06-19T14:39:57;34.40;29.80
1277;DHT22;631;51.024;13.826;2023-06-19T14:42:22;34.50;30.40
1277;DHT22;631;51.024;13.826;2023-06-19T14:44:48;34.50;30.20
1277;DHT22;631;51.024;13.826;2023-06-19T14:47:13;34.60;30.10
1277;DHT22;631;51.024;13.826;2023-06-19T14:49:39;33.90;30.00
1277;DHT22;631;51.024;13.826;2023-06-19T14:52:06;33.60;30.90
1277;DHT22;631;51.024;13.826;2023-06-19T14:54:32;33.60;30.90
1277;DHT22;631;51.024;13.826;2023-06-19T14:56:57;33.50;30.90
1277;DHT22;631;51.024;13.826;2023-06-19T14:59:23;33.00;31.40
1277;DHT22;631;51.024;13.826;2023-06-19T15:01:49;33.00;32.10
1277;DHT22;631;51.024;13.826;2023-06-19T15:04:15;33.10;32.50
1277;DHT22;631;51.024;13.826;2023-06-19T15:06:41;32.90;32.70
1277;DHT22;631;51.024;13.826;2023-06-19T15:09:06;32.70;33.00
1277;DHT22;631;51.024;13.826;2023-06-19T15:11:32;32.80;33.80
1277;DHT22;631;51.024;13.826;2023-06-19T15:13:58;32.90;32.90
1277;DHT22;631;51.024;13.826;2023-06-19T15:16:23;33.30;33.10
1277;DHT22;631;51.024;13.826;2023-06-19T15:18:51;33.50;32.50
1277;DHT22;631;51.024;13.826;2023-06-19T15:21:17;33.60;31.90
1277;DHT22;631;51.024;13.826;2023-06-19T15:23:43;33.70;32.30
1277;DHT22;631;51.024;13.826;2023-06-19T15:26:09;33.80;32.80
1277;DHT22;631;51.024;13.826;2023-06-19T15:28:34;34.00;32.50
1277;DHT22;631;51.024;13.826;2023-06-19T15:31:01;34.00;32.30
1277;DHT22;631;51.024;13.826;2023-06-19T15:33:27;34.00;32.20
1277;DHT22;631;51.024;13.826;2023-06-19T15:35:53;33.90;32.60
1277;DHT22;631;51.024;13.826;2023-06-19T15:38:18;34.20;33.40
1277;DHT22;631;51.024;13.826;2023-06-19T15:40:45;34.40;31.80
1277;DHT22;631;51.024;13.826;2023-06-19T15:43:11;34.30;31.40
1277;DHT22;631;51.024;13.826;2023-06-19T15:45:36;34.30;32.10
1277;DHT22;631;51.024;13.826;2023-06-19T15:48:02;34.10;32.40
1277;DHT22;631;51.024;13.826;2023-06-19T15:50:28;34.00;32.60
1277;DHT22;631;51.024;13.826;2023-06-19T15:52:54;33.60;33.00
1277;DHT22;631;51.024;13.826;2023-06-19T15:55:19;33.40;33.50
1277;DHT22;631;51.024;13.826;2023-06-19T15:57:46;33.20;34.20
1277;DHT22;631;51.024;13.826;2023-06-19T16:00:12;32.90;34.60
1277;DHT22;631;51.024;13.826;2023-06-19T16:02:40;32.90;35.20
1277;DHT22;631;51.024;13.826;2023-06-19T16:05:08;33.00;35.00
1277;DHT22;631;51.024;13.826;2023-06-19T16:07:34;33.30;34.70
1277;DHT22;631;51.024;13.826;2023-06-19T16:10:00;33.40;34.50
1277;DHT22;631;51.024;13.826;2023-06-19T16:12:25;33.20;34.30